sensor_id;sensor_type;location;lat;lon;timestamp;pressure;altitude;pressure_sealevel;temperature;humidity
52735;BME280;38631;47.572;10.704;2023-04-23T00:00:59;92067.09;;;10.40;83.98
52735;BME280;38631;47.572;10.704;2023-04-23T00:03:29;92060.84;;;10.44;83.57
52735;BME280;38631;47.572;10.704;2023-04-23T00:05:57;92063.94;;;10.55;83.84
52735;BME280;38631;47.572;10.704;2023-04-23T00:08:52;92057.53;;;10.47;84.33
52735;BME280;38631;47.572;10.704;2023-04-23T00:11:37;92052.88;;;10.44;84.33
52735;BME280;38631;47.572;10.704;2023-04-23T00:14:03;92046.78;;;10.35;84.71
52735;BME280;38631;47.572;10.704;2023-04-23T00:16:29;92043.50;;;10.38;83.86
52735;BME280;38631;47.572;10.704;2023-04-23T00:19:13;92034.91;;;10.50;84.05
52735;BME280;38631;47.572;10.704;2023-04-23T00:21:38;92035.22;;;10.40;85.20
52735;BME280;38631;47.572;10.704;2023-04-23T00:24:11;92036.94;;;10.27;85.95
52735;BME280;38631;47.572;10.704;2023-04-23T00:26:37;92035.88;;;10.19;85.88
52735;BME280;38631;47.572;10.704;2023-04-23T00:29:02;92021.19;;;10.30;85.47
52735;BME280;38631;47.572;10.704;2023-04-23T00:31:34;92019.34;;;10.31;85.22
52735;BME280;38631;47.572;10.704;2023-04-23T00:34:00;92016.50;;;10.10;85.79
52735;BME280;38631;47.572;10.704;2023-04-23T00:36:25;92012.13;;;10.23;85.56
52735;BME280;38631;47.572;10.704;2023-04-23T00:38:50;92016.53;;;9.92;85.98
52735;BME280;38631;47.572;10.704;2023-04-23T00:41:20;92022.78;;;9.97;86.64
52735;BME280;38631;47.572;10.704;2023-04-23T00:43:45;92021.66;;;10.24;85.70
52735;BME280;38631;47.572;10.704;2023-04-23T00:46:11;92010.72;;;10.25;85.18
52735;BME280;38631;47.572;10.704;2023-04-23T00:48:37;92019.94;;;10.10;85.79
52735;BME280;38631;47.572;10.704;2023-04-23T00:51:04;92009.84;;;9.69;88.02
52735;BME280;38631;47.572;10.704;2023-04-23T00:53:30;92013.09;;;9.92;87.38
52735;BME280;38631;47.572;10.704;2023-04-23T00:55:56;92011.84;;;10.07;86.52
52735;BME280;38631;47.572;10.704;2023-04-23T00:58:22;92018.09;;;10.11;86.64
52735;BME280;38631;47.572;10.704;2023-04-23T01:00:47;92020.72;;;10.20;86.00
52735;BME280;38631;47.572;10.704;2023-04-23T01:03:14;92016.81;;;10.26;85.52
52735;BME280;38631;47.572;10.704;2023-04-23T01:05:42;92013.88;;;10.19;86.53
52735;BME280;38631;47.572;10.704;2023-04-23T01:08:09;92014.03;;;10.13;86.56
52735;BME280;38631;47.572;10.704;2023-04-23T01:10:39;92015.41;;;10.20;86.31
52735;BME280;38631;47.572;10.704;2023-04-23T01:13:05;92011.22;;;10.19;87.04
52735;BME280;38631;47.572;10.704;2023-04-23T01:15:30;92013.84;;;10.10;87.47
52735;BME280;38631;47.572;10.704;2023-04-23T01:17:55;92010.13;;;10.11;86.94
52735;BME280;38631;47.572;10.704;2023-04-23T01:20:22;92005.31;;;9.78;88.46
52735;BME280;38631;47.572;10.704;2023-04-23T01:22:48;91999.22;;;9.78;88.49
52735;BME280;38631;47.572;10.704;2023-04-23T01:25:13;92010.28;;;9.97;88.35
52735;BME280;38631;47.572;10.704;2023-04-23T01:27:39;92007.81;;;9.83;88.47
52735;BME280;38631;47.572;10.704;2023-04-23T01:30:05;92007.66;;;9.80;89.30
52735;BME280;38631;47.572;10.704;2023-04-23T01:32:32;92012.19;;;9.53;91.26
52735;BME280;38631;47.572;10.704;2023-04-23T01:34:57;92024.16;;;9.85;89.51
52735;BME280;38631;47.572;10.704;2023-04-23T01:37:23;92010.75;;;9.99;88.72
52735;BME280;38631;47.572;10.704;2023-04-23T01:39:50;92016.06;;;9.90;89.74
52735;BME280;38631;47.572;10.704;2023-04-23T01:42:15;92023.72;;;9.83;89.39
52735;BME280;38631;47.572;10.704;2023-04-23T01:44:41;92029.34;;;9.82;91.08
52735;BME280;38631;47.572;10.704;2023-04-23T01:47:06;92029.97;;;9.96;90.99
52735;BME280;38631;47.572;10.704;2023-04-23T01:49:32;92033.69;;;9.95;91.06
52735;BME280;38631;47.572;10.704;2023-04-23T01:51:57;92024.34;;;9.89;91.51
52735;BME280;38631;47.572;10.704;2023-04-23T01:54:23;92036.34;;;9.95;91.67
52735;BME280;38631;47.572;10.704;2023-04-23T01:56:48;92039.91;;;9.90;91.51
52735;BME280;38631;47.572;10.704;2023-04-23T01:59:19;92046.94;;;9.78;91.82
52735;BME280;38631;47.572;10.704;2023-04-23T02:01:45;92041.03;;;9.81;90.97
52735;BME280;38631;47.572;10.704;2023-04-23T02:04:12;92047.72;;;9.95;90.40
52735;BME280;38631;47.572;10.704;2023-04-23T02:06:39;92050.38;;;9.95;91.02
52735;BME280;38631;47.572;10.704;2023-04-23T02:09:06;92055.06;;;9.90;91.36
52735;BME280;38631;47.572;10.704;2023-04-23T02:11:31;92052.91;;;9.83;91.72
52735;BME280;38631;47.572;10.704;2023-04-23T02:13:57;92052.41;;;9.90;91.91
52735;BME280;38631;47.572;10.704;2023-04-23T02:16:22;92058.19;;;9.92;91.57
52735;BME280;38631;47.572;10.704;2023-04-23T02:18:48;92044.47;;;9.81;90.07
52735;BME280;38631;47.572;10.704;2023-04-23T02:21:14;92054.75;;;9.91;88.91
52735;BME280;38631;47.572;10.704;2023-04-23T02:23:46;92051.16;;;9.87;87.58
52735;BME280;38631;47.572;10.704;2023-04-23T02:26:11;92048.81;;;9.60;87.71
52735;BME280;38631;47.572;10.704;2023-04-23T02:28:37;92051.47;;;9.68;87.45
52735;BME280;38631;47.572;10.704;2023-04-23T02:31:03;92051.63;;;9.63;87.30
52735;BME280;38631;47.572;10.704;2023-04-23T02:33:28;92045.25;;;9.82;87.32
52735;BME280;38631;47.572;10.704;2023-04-23T02:35:54;92046.50;;;9.76;88.05
52735;BME280;38631;47.572;10.704;2023-04-23T02:38:19;92051.34;;;9.91;87.89
52735;BME280;38631;47.572;10.704;2023-04-23T02:40:44;92047.28;;;9.93;88.71
52735;BME280;38631;47.572;10.704;2023-04-23T02:43:10;92052.56;;;10.02;88.48
52735;BME280;38631;47.572;10.704;2023-04-23T02:45:35;92048.50;;;10.05;88.82
52735;BME280;38631;47.572;10.704;2023-04-23T02:48:01;92048.38;;;10.01;89.05
52735;BME280;38631;47.572;10.704;2023-04-23T02:50:26;92045.53;;;9.98;89.33
52735;BME280;38631;47.572;10.704;2023-04-23T02:52:51;92046.94;;;9.69;90.33
52735;BME280;38631;47.572;10.704;2023-04-23T02:55:17;92059.88;;;9.53;90.81
52735;BME280;38631;47.572;10.704;2023-04-23T02:57:42;92056.88;;;9.37;91.96
52735;BME280;38631;47.572;10.704;2023-04-23T03:00:09;92066.56;;;9.42;91.81
52735;BME280;38631;47.572;10.704;2023-04-23T03:02:35;92073.94;;;9.71;91.14
52735;BME280;38631;47.572;10.704;2023-04-23T03:05:01;92069.88;;;9.65;93.09
52735;BME280;38631;47.572;10.704;2023-04-23T03:07:26;92069.72;;;9.61;94.43
52735;BME280;38631;47.572;10.704;2023-04-23T03:09:51;92075.50;;;9.63;93.84
52735;BME280;38631;47.572;10.704;2023-04-23T03:12:17;92087.34;;;9.74;92.80
52735;BME280;38631;47.572;10.704;2023-04-23T03:14:42;92075.59;;;9.49;96.09
52735;BME280;38631;47.572;10.704;2023-04-23T03:17:08;92090.13;;;9.52;95.09
52735;BME280;38631;47.572;10.704;2023-04-23T03:19:34;92078.75;;;9.60;94.89
52735;BME280;38631;47.572;10.704;2023-04-23T03:21:59;92087.78;;;9.59;95.63
52735;BME280;38631;47.572;10.704;2023-04-23T03:24:27;92084.81;;;9.52;97.04
52735;BME280;38631;47.572;10.704;2023-04-23T03:26:56;92076.38;;;9.50;96.76
52735;BME280;38631;47.572;10.704;2023-04-23T03:29:22;92092.13;;;9.55;97.92
52735;BME280;38631;47.572;10.704;2023-04-23T03:31:48;92082.59;;;9.45;100.00
52735;BME280;38631;47.572;10.704;2023-04-23T03:34:13;92091.75;;;9.22;100.00
52735;BME280;38631;47.572;10.704;2023-04-23T03:36:49;92088.94;;;9.18;100.00
52735;BME280;38631;47.572;10.704;2023-04-23T03:39:15;92081.19;;;9.30;100.00
52735;BME280;38631;47.572;10.704;2023-04-23T03:41:40;92082.06;;;9.08;100.00
52735;BME280;38631;47.572;10.704;2023-04-23T03:44:06;92077.59;;;9.26;100.00
52735;BME280;38631;47.572;10.704;2023-04-23T03:46:31;92077.16;;;9.33;100.00
52735;BME280;38631;47.572;10.704;2023-04-23T03:48:57;92072.78;;;9.37;100.00
52735;BME280;38631;47.572;10.704;2023-04-23T03:51:23;92081.09;;;9.53;100.00
52735;BME280;38631;47.572;10.704;2023-04-23T03:53:48;92078.78;;;9.20;100.00
52735;BME280;38631;47.572;10.704;2023-04-23T03:56:14;92077.69;;;9.13;100.00
52735;BME280;38631;47.572;10.704;2023-04-23T03:58:40;92086.03;;;8.97;100.00
52735;BME280;38631;47.572;10.704;2023-04-23T04:01:05;92095.69;;;8.93;100.00
52735;BME280;38631;47.572;10.704;2023-04-23T04:03:34;92084.38;;;9.10;100.00
52735;BME280;38631;47.572;10.704;2023-04-23T04:06:00;92089.56;;;9.24;100.00
52735;BME280;38631;47.572;10.704;2023-04-23T04:08:25;92086.50;;;9.30;100.00
52735;BME280;38631;47.572;10.704;2023-04-23T04:10:51;92087.38;;;9.17;100.00
52735;BME280;38631;47.572;10.704;2023-04-23T04:13:16;92088.91;;;9.09;100.00
52735;BME280;38631;47.572;10.704;2023-04-23T04:15:42;92099.19;;;8.80;100.00
52735;BME280;38631;47.572;10.704;2023-04-23T04:18:15;92098.66;;;8.92;100.00
52735;BME280;38631;47.572;10.704;2023-04-23T04:20:40;92092.91;;;8.98;100.00
52735;BME280;38631;47.572;10.704;2023-04-23T04:23:08;92100.72;;;9.03;100.00
52735;BME280;38631;47.572;10.704;2023-04-23T04:25:33;92097.78;;;8.74;100.00
52735;BME280;38631;47.572;10.704;2023-04-23T04:28:03;92100.25;;;9.01;100.00
52735;BME280;38631;47.572;10.704;2023-04-23T04:30:31;92102.47;;;9.17;100.00
52735;BME280;38631;47.572;10.704;2023-04-23T04:32:56;92097.69;;;9.27;100.00
52735;BME280;38631;47.572;10.704;2023-04-23T04:35:22;92093.00;;;8.84;100.00
52735;BME280;38631;47.572;10.704;2023-04-23T04:37:48;92095.31;;;8.77;100.00
52735;BME280;38631;47.572;10.704;2023-04-23T04:40:13;92099.34;;;9.06;100.00
52735;BME280;38631;47.572;10.704;2023-04-23T04:42:39;92095.03;;;8.87;100.00
52735;BME280;38631;47.572;10.704;2023-04-23T04:45:05;92091.56;;;8.47;100.00
52735;BME280;38631;47.572;10.704;2023-04-23T04:47:30;92093.50;;;8.55;100.00
52735;BME280;38631;47.572;10.704;2023-04-23T04:49:56;92097.16;;;8.77;100.00
52735;BME280;38631;47.572;10.704;2023-04-23T04:52:22;92093.22;;;8.97;100.00
52735;BME280;38631;47.572;10.704;2023-04-23T04:54:48;92099.97;;;9.12;100.00
52735;BME280;38631;47.572;10.704;2023-04-23T04:57:13;92100.31;;;9.19;100.00
52735;BME280;38631;47.572;10.704;2023-04-23T04:59:39;92109.19;;;9.23;100.00
52735;BME280;38631;47.572;10.704;2023-04-23T05:02:05;92107.97;;;9.29;100.00
52735;BME280;38631;47.572;10.704;2023-04-23T05:04:30;92107.31;;;9.15;100.00
52735;BME280;38631;47.572;10.704;2023-04-23T05:06:56;92111.97;;;9.09;100.00
52735;BME280;38631;47.572;10.704;2023-04-23T05:09:25;92106.53;;;9.14;100.00
52735;BME280;38631;47.572;10.704;2023-04-23T05:11:51;92107.31;;;9.15;100.00
52735;BME280;38631;47.572;10.704;2023-04-23T05:14:16;92113.84;;;9.17;100.00
52735;BME280;38631;47.572;10.704;2023-04-23T05:16:42;92116.00;;;9.06;100.00
52735;BME280;38631;47.572;10.704;2023-04-23T05:19:07;92112.91;;;9.13;100.00
52735;BME280;38631;47.572;10.704;2023-04-23T05:21:33;92126.38;;;9.25;100.00
52735;BME280;38631;47.572;10.704;2023-04-23T05:23:58;92116.41;;;9.31;100.00
52735;BME280;38631;47.572;10.704;2023-04-23T05:26:24;92113.75;;;9.31;100.00
52735;BME280;38631;47.572;10.704;2023-04-23T05:28:50;92107.97;;;9.29;100.00
52735;BME280;38631;47.572;10.704;2023-04-23T05:31:15;92098.44;;;9.19;100.00
52735;BME280;38631;47.572;10.704;2023-04-23T05:33:41;92111.41;;;9.29;100.00
52735;BME280;38631;47.572;10.704;2023-04-23T05:36:09;92112.66;;;9.32;100.00
52735;BME280;38631;47.572;10.704;2023-04-23T05:38:35;92105.34;;;9.38;100.00
52735;BME280;38631;47.572;10.704;2023-04-23T05:41:00;92118.31;;;8.99;100.00
52735;BME280;38631;47.572;10.704;2023-04-23T05:43:25;92109.97;;;8.83;100.00
52735;BME280;38631;47.572;10.704;2023-04-23T05:45:51;92113.13;;;8.94;100.00
52735;BME280;38631;47.572;10.704;2023-04-23T05:48:16;92102.16;;;8.78;100.00
52735;BME280;38631;47.572;10.704;2023-04-23T05:50:42;92106.09;;;8.90;100.00
52735;BME280;38631;47.572;10.704;2023-04-23T05:53:07;92104.78;;;9.09;100.00
52735;BME280;38631;47.572;10.704;2023-04-23T05:55:32;92104.34;;;9.16;100.00
52735;BME280;38631;47.572;10.704;2023-04-23T05:57:58;92112.16;;;9.21;100.00
52735;BME280;38631;47.572;10.704;2023-04-23T06:00:23;92105.56;;;9.10;100.00
52735;BME280;38631;47.572;10.704;2023-04-23T06:02:48;92099.16;;;9.02;100.00
52735;BME280;38631;47.572;10.704;2023-04-23T06:05:14;92106.66;;;9.09;100.00
52735;BME280;38631;47.572;10.704;2023-04-23T06:07:40;92100.41;;;9.05;100.00
52735;BME280;38631;47.572;10.704;2023-04-23T06:10:06;92104.66;;;9.15;100.00
52735;BME280;38631;47.572;10.704;2023-04-23T06:12:32;92103.78;;;9.28;100.00
52735;BME280;38631;47.572;10.704;2023-04-23T06:14:57;92115.78;;;9.34;100.00
52735;BME280;38631;47.572;10.704;2023-04-23T06:17:22;92102.38;;;9.30;100.00
52735;BME280;38631;47.572;10.704;2023-04-23T06:19:48;92098.50;;;9.37;100.00
52735;BME280;38631;47.572;10.704;2023-04-23T06:22:13;92102.06;;;9.32;100.00
52735;BME280;38631;47.572;10.704;2023-04-23T06:24:38;92111.75;;;9.45;100.00
52735;BME280;38631;47.572;10.704;2023-04-23T06:27:04;92111.91;;;9.40;100.00
52735;BME280;38631;47.572;10.704;2023-04-23T06:29:29;92113.16;;;9.43;100.00
52735;BME280;38631;47.572;10.704;2023-04-23T06:31:56;92115.06;;;9.51;100.00
52735;BME280;38631;47.572;10.704;2023-04-23T06:34:25;92113.22;;;9.69;100.00
52735;BME280;38631;47.572;10.704;2023-04-23T06:36:50;92103.53;;;9.64;100.00
52735;BME280;38631;47.572;10.704;2023-04-23T06:39:16;92106.53;;;9.71;100.00
52735;BME280;38631;47.572;10.704;2023-04-23T06:41:41;92112.47;;;9.77;100.00
52735;BME280;38631;47.572;10.704;2023-04-23T06:44:06;92111.34;;;9.69;100.00
52735;BME280;38631;47.572;10.704;2023-04-23T06:46:32;92106.81;;;9.70;100.00
52735;BME280;38631;47.572;10.704;2023-04-23T06:48:57;92114.63;;;9.75;100.00
52735;BME280;38631;47.572;10.704;2023-04-23T06:51:24;92106.72;;;9.84;100.00
52735;BME280;38631;47.572;10.704;2023-04-23T06:53:49;92105.09;;;9.57;100.00
52735;BME280;38631;47.572;10.704;2023-04-23T06:56:15;92101.63;;;9.47;100.00
52735;BME280;38631;47.572;10.704;2023-04-23T06:58:40;92110.97;;;9.45;100.00
52735;BME280;38631;47.572;10.704;2023-04-23T07:01:05;92095.38;;;9.35;100.00
52735;BME280;38631;47.572;10.704;2023-04-23T07:03:32;92094.31;;;9.44;100.00
52735;BME280;38631;47.572;10.704;2023-04-23T07:05:57;92090.53;;;9.28;100.00
52735;BME280;38631;47.572;10.704;2023-04-23T07:08:23;92088.53;;;9.34;100.00
52735;BME280;38631;47.572;10.704;2023-04-23T07:11:10;92086.53;;;9.57;100.00
52735;BME280;38631;47.572;10.704;2023-04-23T07:13:42;92082.78;;;9.49;100.00
52735;BME280;38631;47.572;10.704;2023-04-23T07:16:14;92093.41;;;9.66;100.00
52735;BME280;38631;47.572;10.704;2023-04-23T07:18:40;92082.50;;;9.77;100.00
52735;BME280;38631;47.572;10.704;2023-04-23T07:21:05;92096.53;;;9.60;100.00
52735;BME280;38631;47.572;10.704;2023-04-23T07:23:30;92077.03;;;9.73;100.00
52735;BME280;38631;47.572;10.704;2023-04-23T07:25:56;92075.94;;;9.57;100.00
52735;BME280;38631;47.572;10.704;2023-04-23T07:28:22;92078.31;;;9.76;100.00
52735;BME280;38631;47.572;10.704;2023-04-23T07:30:47;92082.06;;;9.83;100.00
52735;BME280;38631;47.572;10.704;2023-04-23T07:33:13;92086.88;;;9.72;100.00
52735;BME280;38631;47.572;10.704;2023-04-23T07:35:47;92073.13;;;9.62;100.00
52735;BME280;38631;47.572;10.704;2023-04-23T07:38:16;92089.03;;;9.62;100.00
52735;BME280;38631;47.572;10.704;2023-04-23T07:40:42;92077.34;;;9.80;100.00
52735;BME280;38631;47.572;10.704;2023-04-23T07:43:08;92069.72;;;9.79;100.00
52735;BME280;38631;47.572;10.704;2023-04-23T07:45:33;92084.56;;;9.88;100.00
52735;BME280;38631;47.572;10.704;2023-04-23T07:48:01;92089.84;;;9.97;100.00
52735;BME280;38631;47.572;10.704;2023-04-23T07:50:28;92081.13;;;9.97;100.00
52735;BME280;38631;47.572;10.704;2023-04-23T07:53:14;92084.41;;;9.93;100.00
52735;BME280;38631;47.572;10.704;2023-04-23T07:55:39;92086.25;;;9.93;100.00
52735;BME280;38631;47.572;10.704;2023-04-23T07:58:05;92080.34;;;9.96;100.00
52735;BME280;38631;47.572;10.704;2023-04-23T08:00:37;92080.66;;;10.03;100.00
52735;BME280;38631;47.572;10.704;2023-04-23T08:03:06;92081.91;;;10.06;100.00
52735;BME280;38631;47.572;10.704;2023-04-23T08:05:31;92083.78;;;10.14;100.00
52735;BME280;38631;47.572;10.704;2023-04-23T08:07:59;92068.19;;;10.04;100.00
52735;BME280;38631;47.572;10.704;2023-04-23T08:10:24;92069.56;;;10.10;100.00
52735;BME280;38631;47.572;10.704;2023-04-23T08:12:53;92070.19;;;10.15;100.00
52735;BME280;38631;47.572;10.704;2023-04-23T08:15:24;92069.59;;;10.19;100.00
52735;BME280;38631;47.572;10.704;2023-04-23T08:18:24;92077.72;;;10.31;100.00
52735;BME280;38631;47.572;10.704;2023-04-23T08:20:49;92071.31;;;10.32;100.00
52735;BME280;38631;47.572;10.704;2023-04-23T08:23:17;92064.72;;;10.38;100.00
52735;BME280;38631;47.572;10.704;2023-04-23T08:25:42;92058.19;;;10.35;100.00
52735;BME280;38631;47.572;10.704;2023-04-23T08:28:07;92069.44;;;10.41;100.00
52735;BME280;38631;47.572;10.704;2023-04-23T08:30:56;92063.47;;;10.35;100.00
52735;BME280;38631;47.572;10.704;2023-04-23T08:40:08;92053.13;;;10.60;100.00
52735;BME280;38631;47.572;10.704;2023-04-23T08:45:04;92059.19;;;10.78;100.00
52735;BME280;38631;47.572;10.704;2023-04-23T08:47:31;92061.31;;;10.93;100.00
52735;BME280;38631;47.572;10.704;2023-04-23T08:49:58;92054.16;;;10.85;100.00
52735;BME280;38631;47.572;10.704;2023-04-23T08:55:16;92038.88;;;10.82;100.00
52735;BME280;38631;47.572;10.704;2023-04-23T08:57:43;92048.25;;;10.79;100.00
52735;BME280;38631;47.572;10.704;2023-04-23T09:00:11;92043.19;;;10.95;100.00
52735;BME280;38631;47.572;10.704;2023-04-23T09:03:16;92048.41;;;11.13;100.00
52735;BME280;38631;47.572;10.704;2023-04-23T09:05:42;92034.91;;;11.27;100.00
52735;BME280;38631;47.572;10.704;2023-04-23T09:08:09;92027.41;;;11.29;100.00
52735;BME280;38631;47.572;10.704;2023-04-23T09:10:36;92025.91;;;11.19;100.00
52735;BME280;38631;47.572;10.704;2023-04-23T09:13:03;92028.13;;;11.38;100.00
52735;BME280;38631;47.572;10.704;2023-04-23T09:15:28;92018.91;;;11.35;100.00
52735;BME280;38631;47.572;10.704;2023-04-23T09:17:53;92024.78;;;11.50;100.00
52735;BME280;38631;47.572;10.704;2023-04-23T09:20:19;92017.91;;;11.70;100.00
52735;BME280;38631;47.572;10.704;2023-04-23T09:22:49;92011.16;;;11.72;97.17
52735;BME280;38631;47.572;10.704;2023-04-23T09:25:18;92013.63;;;11.77;93.19
52735;BME280;38631;47.572;10.704;2023-04-23T09:27:57;92008.56;;;11.84;91.50
52735;BME280;38631;47.572;10.704;2023-04-23T09:30:39;92004.69;;;12.03;88.45
52735;BME280;38631;47.572;10.704;2023-04-23T09:33:10;92000.81;;;12.00;88.11
52735;BME280;38631;47.572;10.704;2023-04-23T09:36:13;92002.13;;;11.94;86.00
52735;BME280;38631;47.572;10.704;2023-04-23T09:38:41;91989.69;;;11.98;85.95
52735;BME280;38631;47.572;10.704;2023-04-23T09:41:20;91982.75;;;12.06;84.75
52735;BME280;38631;47.572;10.704;2023-04-23T09:43:46;91980.16;;;11.97;84.31
52735;BME280;38631;47.572;10.704;2023-04-23T09:46:12;91979.16;;;11.89;82.95
52735;BME280;38631;47.572;10.704;2023-04-23T09:48:41;91968.47;;;12.10;83.34
52735;BME280;38631;47.572;10.704;2023-04-23T09:51:14;91960.22;;;12.03;82.65
52735;BME280;38631;47.572;10.704;2023-04-23T09:53:42;91958.84;;;12.18;83.06
52735;BME280;38631;47.572;10.704;2023-04-23T09:56:08;91943.16;;;12.04;81.82
52735;BME280;38631;47.572;10.704;2023-04-23T09:58:33;91944.84;;;12.09;83.51
52735;BME280;38631;47.572;10.704;2023-04-23T10:01:33;91951.44;;;12.24;84.13
52735;BME280;38631;47.572;10.704;2023-04-23T10:07:32;91939.25;;;12.35;84.57
52735;BME280;38631;47.572;10.704;2023-04-23T10:09:59;91934.25;;;12.33;83.12
52735;BME280;38631;47.572;10.704;2023-04-23T10:12:51;91935.03;;;12.34;83.80
52735;BME280;38631;47.572;10.704;2023-04-23T10:15:17;91922.97;;;12.37;82.93
52735;BME280;38631;47.572;10.704;2023-04-23T10:17:44;91923.03;;;12.28;83.16
52735;BME280;38631;47.572;10.704;2023-04-23T10:20:13;91911.09;;;12.34;82.49
52735;BME280;38631;47.572;10.704;2023-04-23T10:23:18;91910.50;;;12.41;83.15
52735;BME280;38631;47.572;10.704;2023-04-23T10:26:00;91909.53;;;12.45;81.58
52735;BME280;38631;47.572;10.704;2023-04-23T10:28:29;91906.06;;;12.32;83.41
52735;BME280;38631;47.572;10.704;2023-04-23T10:30:57;91908.88;;;12.61;83.99
52735;BME280;38631;47.572;10.704;2023-04-23T10:33:25;91887.00;;;12.55;84.56
52735;BME280;38631;47.572;10.704;2023-04-23T10:35:51;91908.09;;;12.60;83.54
52735;BME280;38631;47.572;10.704;2023-04-23T10:38:19;91904.13;;;12.54;82.45
52735;BME280;38631;47.572;10.704;2023-04-23T10:40:47;91901.31;;;12.63;82.32
52735;BME280;38631;47.572;10.704;2023-04-23T10:43:15;91897.31;;;12.69;82.99
52735;BME280;38631;47.572;10.704;2023-04-23T10:45:52;91884.66;;;12.53;82.46
52735;BME280;38631;47.572;10.704;2023-04-23T10:48:19;91888.78;;;12.63;82.28
52735;BME280;38631;47.572;10.704;2023-04-23T10:51:12;91888.09;;;12.79;83.71
52735;BME280;38631;47.572;10.704;2023-04-23T10:53:40;91885.34;;;12.75;83.59
52735;BME280;38631;47.572;10.704;2023-04-23T10:56:16;91881.22;;;12.90;86.26
52735;BME280;38631;47.572;10.704;2023-04-23T10:58:48;91877.00;;;12.89;84.99
52735;BME280;38631;47.572;10.704;2023-04-23T11:01:30;91878.34;;;12.95;84.35
52735;BME280;38631;47.572;10.704;2023-04-23T11:04:20;91878.44;;;12.98;83.76
52735;BME280;38631;47.572;10.704;2023-04-23T11:12:00;91868.75;;;13.06;84.59
52735;BME280;38631;47.572;10.704;2023-04-23T11:14:57;91879.16;;;13.24;82.99
52735;BME280;38631;47.572;10.704;2023-04-23T11:20:26;91870.72;;;13.22;80.54
52735;BME280;38631;47.572;10.704;2023-04-23T11:22:52;91857.31;;;13.30;82.57
52735;BME280;38631;47.572;10.704;2023-04-23T11:25:28;91861.41;;;13.28;81.60
52735;BME280;38631;47.572;10.704;2023-04-23T11:27:58;91867.41;;;13.37;82.48
52735;BME280;38631;47.572;10.704;2023-04-23T11:30:36;91862.53;;;13.27;81.77
52735;BME280;38631;47.572;10.704;2023-04-23T11:33:14;91859.72;;;13.35;82.67
52735;BME280;38631;47.572;10.704;2023-04-23T11:35:55;91857.34;;;13.46;82.03
52735;BME280;38631;47.572;10.704;2023-04-23T11:38:20;91861.53;;;13.59;81.77
52735;BME280;38631;47.572;10.704;2023-04-23T11:40:53;91847.94;;;13.36;80.62
52735;BME280;38631;47.572;10.704;2023-04-23T11:43:18;91848.59;;;13.46;81.07
52735;BME280;38631;47.572;10.704;2023-04-23T11:45:45;91843.97;;;13.58;82.26
52735;BME280;38631;47.572;10.704;2023-04-23T11:48:10;91846.59;;;13.87;81.81
52735;BME280;38631;47.572;10.704;2023-04-23T11:50:35;91845.94;;;13.61;80.54
52735;BME280;38631;47.572;10.704;2023-04-23T11:53:04;91842.06;;;13.87;80.95
52735;BME280;38631;47.572;10.704;2023-04-23T11:55:47;91838.09;;;13.81;79.18
52735;BME280;38631;47.572;10.704;2023-04-23T11:58:16;91834.22;;;13.78;79.15
52735;BME280;38631;47.572;10.704;2023-04-23T12:00:56;91836.91;;;13.94;79.56
52735;BME280;38631;47.572;10.704;2023-04-23T12:03:25;91830.34;;;13.92;80.45
52735;BME280;38631;47.572;10.704;2023-04-23T12:05:54;91822.09;;;13.97;79.52
52735;BME280;38631;47.572;10.704;2023-04-23T12:08:20;91830.63;;;14.02;79.77
52735;BME280;38631;47.572;10.704;2023-04-23T12:10:54;91817.69;;;13.89;80.41
52735;BME280;38631;47.572;10.704;2023-04-23T12:13:24;91811.59;;;14.04;79.90
52735;BME280;38631;47.572;10.704;2023-04-23T12:15:52;91821.84;;;14.02;79.61
52735;BME280;38631;47.572;10.704;2023-04-23T12:18:32;91812.97;;;13.98;79.35
52735;BME280;38631;47.572;10.704;2023-04-23T12:21:12;91818.31;;;13.82;78.99
52735;BME280;38631;47.572;10.704;2023-04-23T12:23:41;91805.28;;;13.65;78.58
52735;BME280;38631;47.572;10.704;2023-04-23T12:26:09;91804.84;;;13.63;79.89
52735;BME280;38631;47.572;10.704;2023-04-23T12:28:59;91806.13;;;13.69;78.93
52735;BME280;38631;47.572;10.704;2023-04-23T12:31:42;91803.22;;;13.74;79.59
52735;BME280;38631;47.572;10.704;2023-04-23T12:34:08;91808.34;;;13.67;80.12
52735;BME280;38631;47.572;10.704;2023-04-23T12:36:37;91802.50;;;13.61;80.37
52735;BME280;38631;47.572;10.704;2023-04-23T12:39:30;91789.78;;;13.70;79.82
52735;BME280;38631;47.572;10.704;2023-04-23T12:44:24;91784.81;;;13.85;80.41
52735;BME280;38631;47.572;10.704;2023-04-23T12:47:08;91793.34;;;13.90;81.33
52735;BME280;38631;47.572;10.704;2023-04-23T12:49:45;91781.44;;;14.19;79.81
52735;BME280;38631;47.572;10.704;2023-04-23T12:52:19;91785.25;;;14.18;79.36
52735;BME280;38631;47.572;10.704;2023-04-23T12:54:57;91779.75;;;13.95;77.96
52735;BME280;38631;47.572;10.704;2023-04-23T12:57:41;91786.09;;;13.75;79.43
52735;BME280;38631;47.572;10.704;2023-04-23T13:00:09;91784.38;;;13.82;79.45
52735;BME280;38631;47.572;10.704;2023-04-23T13:02:36;91777.84;;;13.80;80.65
52735;BME280;38631;47.572;10.704;2023-04-23T13:05:01;91763.19;;;13.74;80.14
52735;BME280;38631;47.572;10.704;2023-04-23T13:07:29;91772.75;;;13.75;82.15
52735;BME280;38631;47.572;10.704;2023-04-23T13:09:56;91759.59;;;13.82;84.43
52735;BME280;38631;47.572;10.704;2023-04-23T13:12:26;91757.50;;;13.91;84.97
52735;BME280;38631;47.572;10.704;2023-04-23T13:14:51;91761.22;;;13.87;83.74
52735;BME280;38631;47.572;10.704;2023-04-23T13:17:16;91752.50;;;13.74;81.88
52735;BME280;38631;47.572;10.704;2023-04-23T13:19:52;91744.59;;;13.93;83.21
52735;BME280;38631;47.572;10.704;2023-04-23T13:22:21;91740.91;;;13.82;82.63
52735;BME280;38631;47.572;10.704;2023-04-23T13:24:55;91730.91;;;13.79;81.99